Airfield :
LOGIN :

Register | Disclaimer

   EN    FR    IT 

 










Legend :    VFR   Marginal VFR   IFR   Intensive IFR   Very Intensive IFR
Visi :
Ceiling :
>= 8 km
>= 3000ft
5 to 8 km
1000 to 3000 ft
1500m to 5 km
500 to 1000 ft
800 to 1500m
200 to 500 ft
< 800m
< 200 ft
Symbols :   Thunderstorms  Fog  Heavy snow  Heavy precipitations  Wind > 20 kt
SIGMETs :     Misc.  Thunderstorms  Icing  Turbulence  Mountain Waves  Volcanic Ashes






- Airport Elevation : 16 ft
- IATA code : LPX


EVLA - Liepaja

CURRENT METAR :
  • 131150Z AUTO 15004KT 6000 -RA BKN006/// BKN014/// OVC019/// 10/10 Q1003

EXPIRED METARs :
  • 131120Z AUTO 17004KT 140V200 6000 OVC006/// 10/10 Q1004
  • 131050Z AUTO 15004KT 5000 -RA BKN007/// BKN009/// OVC015/// 10/10 Q1004
  • 131020Z AUTO 15004KT 6000 -RA SCT011/// BKN014/// OVC017/// 10/10 Q1004
  • 130950Z AUTO 15005KT 8000 BKN009/// OVC015/// 10/10 Q1004
  • 130920Z AUTO 16004KT 9000 OVC010/// 10/10 Q1004

TAF TAF EVLA
Valid from the 13 at 12:00 until the 14 at 12:00 UTC


131106Z 1312/1412 16007KT 8000 BKN007 OVC012
TEMPO 1312/1315 3000 -RA BR BKN010
TEMPO 1315/1402 2000 -RA BR BKN002
BECMG 1402/1403 18015KT BKN010 OVC015
TEMPO 1403/1406 15017G30KT 4000 -RA BKN005 SCT010CB
TEMPO 1406/1412 21022G40KT BKN007 SCT010CB



MET'MAP, your aeronautical weather chart ! - Copyright ORBIFLY December 2007 - Disclaimer

ORBIFLY MET'MAP TEAM :

Programming & Development : Alexandra Zaïnal
Concept & Development : Baudouin d'Aumeries
Co-Development & Prog : Marc-Olivier Méhu
Technical & hardware support : Manuel Goepfert

Contact : metmap@orbifly.com




SOURCES & CREDITS :

   NOAA